METAR Data
IDs: Format: Raw Decoded Include TAF

Data at: 0219 UTC 12 May 2021

KAID 120215Z AUTO 35004KT 10SM CLR 08/M01 A3037 RMK AO2 T00751014
KAID 120155Z AUTO 35005KT 10SM CLR 08/M02 A3035 RMK AO2 T00801016
KAID 120135Z AUTO 34006KT 10SM CLR 08/M02 A3034 RMK AO2 T00821017
KAID 120115Z AUTO 35005KT 10SM CLR 09/M02 A3033 RMK AO2 T00871017
KAID 120055Z AUTO 35006KT 10SM CLR 09/M02 A3032 RMK AO2 T00871017
KAID 120035Z AUTO 35007KT 10SM CLR 10/M03 A3031 RMK AO2 T00971028
KAID 120015Z AUTO 35007KT 10SM CLR 10/M03 A3030 RMK AO2 T01041033
KAID 112355Z AUTO 34009KT 10SM CLR 11/M03 A3030 RMK AO2 T01071034 10132 20107
KAID 112335Z AUTO 34010KT 10SM CLR 11/M03 A3029 RMK AO2 T01111032
KAID 112315Z AUTO 36009KT 10SM CLR 11/M04 A3028 RMK AO2 T01131038
KAID 112255Z AUTO 35011KT 10SM CLR 12/M04 A3028 RMK AO2 T01171041
KAID 112235Z AUTO 01010G15KT 10SM CLR 12/M04 A3027 RMK AO2 T01221038
KAID 112215Z AUTO 01009G14KT 10SM CLR 12/M04 A3028 RMK AO2 T01241040
KAID 112155Z AUTO 35012G15KT 10SM CLR 13/M04 A3028 RMK AO2 T01281037
KAID 112135Z AUTO 35011KT 10SM CLR 12/M03 A3028 RMK AO2 T01211030
KAID 111859Z 35012G17KT 10SM SCT050 13/M02 A3029
KAID 111759Z 34013G16KT 10SM BKN050 12/M03 A3030
KAID 111659Z 34010G15KT 10SM SCT050 12/M02 A3032
KAID 111459Z 03008KT 340V040 10SM SCT100 10/M01 A3031
KAID 111315Z AUTO 04005KT 10SM BKN090 OVC110 07/00 A3029 RMK AO2 T00681001
KAID 111259Z 02009KT 10SM BKN100 06/M01 A3028
KAID 111255Z AUTO 04010KT 10SM BKN090 BKN110 07/M01 A3028 RMK AO2 T00651006
KAID 111235Z AUTO 03007KT 10SM SCT090 BKN110 06/00 A3028 RMK AO2 T00601003
KAID 111215Z AUTO 02005KT 10SM OVC090 06/00 A3028 RMK AO2 T00571004
KAID 111155Z AUTO 02006KT 10SM SCT070 OVC090 06/00 A3027 RMK AO2 60002 70017 T00561002 10081 20054
KAID 111135Z AUTO 01004KT 10SM OVC090 06/00 A3026 RMK AO2 T00550000
KAID 111115Z AUTO 00000KT 10SM OVC090 05/00 A3026 RMK AO2 T00540000
KAID 111055Z AUTO 36004KT 10SM OVC080 06/00 A3025 RMK AO2 T00550003
KAID 111035Z AUTO 36003KT 10SM OVC070 06/00 A3024 RMK AO2 T00560001
KAID 111015Z AUTO 36003KT 10SM OVC070 06/00 A3024 RMK AO2 T00560000
KAID 110955Z AUTO 36004KT 10SM OVC070 06/01 A3023 RMK AO2 T00600012
KAID 110935Z AUTO 00000KT 10SM SCT055 OVC080 06/02 A3022 RMK AO2 T00600022
KAID 110915Z AUTO 00000KT 10SM SCT042 BKN055 OVC080 06/02 A3021 RMK AO2 T00610018
KAID 110855Z AUTO 00000KT 10SM SCT034 OVC055 06/02 A3021 RMK AO2 60002 T00630019
KAID 110835Z AUTO 02004KT 10SM -RA SCT034 SCT047 OVC055 07/02 A3020 RMK AO2 T00650021
KAID 110815Z AUTO 01006KT 10SM -RA SCT034 SCT049 OVC055 07/03 A3021 RMK AO2 T00690028
KAID 110755Z AUTO 36005KT 10SM RA OVC055 07/04 A3020 RMK AO2 P0002 T00740044
KAID 110735Z AUTO 36004KT 10SM -RA OVC049 08/04 A3019 RMK AO2 P0001 T00750042
KAID 110715Z AUTO 36008KT 7SM -RA OVC049 08/05 A3019 RMK AO2 P0001 T00780054
KAID 110655Z AUTO 36005KT 10SM -RA OVC047 08/06 A3018 RMK AO2 T00800055
KAID 110635Z AUTO 04003KT 10SM BKN043 OVC050 08/05 A3018 RMK AO2 T00810054
KAID 110615Z AUTO 00000KT 10SM OVC045 08/05 A3018 RMK AO2 T00810052
KAID 110555Z AUTO 05004KT 10SM -DZ BKN047 OVC060 08/05 A3019 RMK AO2 P0002 60005 T00800052 10140 20080 401541003
KAID 110535Z AUTO 01003KT 10SM -RA BKN047 OVC050 08/06 A3019 RMK AO2 P0002 T00810056
KAID 110515Z AUTO 36003KT 7SM RA BKN042 BKN047 OVC055 09/06 A3019 RMK AO2 P0002 T00850057
KAID 110455Z AUTO 01004KT 10SM -RA BKN042 OVC050 09/06 A3019 RMK AO2 P0003 T00850057
KAID 110435Z AUTO 02003KT 7SM RA OVC050 09/06 A3018 RMK AO2 P0003 T00860058
KAID 110415Z AUTO 35003KT 7SM RA BKN042 OVC048 09/06 A3019 RMK AO2 P0002 T00900059
KAID 110355Z AUTO 36004KT 10SM -RA BKN043 OVC050 09/06 A3018 RMK AO2 T00910056
KAID 110335Z AUTO 01004KT 10SM -RA SCT050 OVC065 09/06 A3018 RMK AO2 T00940056
KAID 110315Z AUTO 36006KT 10SM -RA SCT048 SCT055 OVC065 10/06 A3018 RMK AO2 T00980055
KAID 110255Z AUTO 36004KT 10SM -DZ SCT050 BKN055 OVC065 10/05 A3018 RMK AO2 T01000052
KAID 110235Z AUTO 00000KT 10SM OVC050 10/05 A3018 RMK AO2 T01010049
KAID 110215Z AUTO 00000KT 10SM BKN050 OVC065 10/05 A3016 RMK AO2 T01010050
KAID 110155Z AUTO 01005KT 10SM BKN065 OVC075 11/05 A3015 RMK AO2 T01050049
KAID 110135Z AUTO 36010G15KT 10SM SCT055 OVC075 11/05 A3014 RMK AO2 T01090046
KAID 110115Z AUTO 34011KT 10SM BKN055 BKN075 OVC090 12/04 A3013 RMK AO2 T01150040
KAID 110055Z AUTO 33004KT 10SM SCT065 BKN075 OVC090 13/03 A3012 RMK AO2 T01310027
KAID 110035Z AUTO 33003KT 10SM SCT065 OVC075 13/02 A3012 RMK AO2 T01320023
KAID 110015Z AUTO 00000KT 10SM SCT055 OVC065 14/02 A3012 RMK AO2 T01370021
KAID 102355Z AUTO 00000KT 10SM OVC055 14/01 A3012 RMK AO2 T01410007 10154 20140
KAID 102335Z AUTO 00000KT 10SM OVC055 14/00 A3012 RMK AO2 T01420002
KAID 102315Z AUTO 25004KT 10SM BKN055 15/00 A3011 RMK AO2 T01450003
KAID 102255Z AUTO 30005KT 10SM SCT055 15/00 A3012 RMK AO2 T01480002
KAID 102235Z AUTO 00000KT 10SM SCT055 15/00 A3011 RMK AO2 T01520004
KAID 102215Z AUTO 31003KT 10SM CLR 15/00 A3011 RMK AO2 T01500002
KAID 102155Z AUTO 30004KT 10SM CLR 15/00 A3011 RMK AO2 T01510003
KAID 102135Z AUTO 29007KT 10SM CLR 15/00 A3012 RMK AO2 T01491001
KAID 101959Z 00000KT 10SM BKN050 15/01 A3012
KAID 101459Z 00000KT 10SM CLR 10/03 A3014